sensor_id;sensor_type;location;lat;lon;timestamp;P1;durP1;ratioP1;P2;durP2;ratioP2
34459;SDS011;20704;51.260;22.558;2022-07-19T00:02:06;10.93;;;4.40;;
34459;SDS011;20704;51.260;22.558;2022-07-19T00:04:33;7.50;;;3.97;;
34459;SDS011;20704;51.260;22.558;2022-07-19T00:06:59;6.50;;;3.45;;
34459;SDS011;20704;51.260;22.558;2022-07-19T00:09:26;9.75;;;3.50;;
34459;SDS011;20704;51.260;22.558;2022-07-19T00:11:53;8.35;;;4.47;;
34459;SDS011;20704;51.260;22.558;2022-07-19T00:14:20;6.50;;;3.97;;
34459;SDS011;20704;51.260;22.558;2022-07-19T00:16:46;6.70;;;4.05;;
34459;SDS011;20704;51.260;22.558;2022-07-19T00:19:13;5.10;;;3.40;;
34459;SDS011;20704;51.260;22.558;2022-07-19T00:21:39;7.00;;;2.97;;
34459;SDS011;20704;51.260;22.558;2022-07-19T00:24:06;10.13;;;3.10;;
34459;SDS011;20704;51.260;22.558;2022-07-19T00:26:32;5.82;;;3.75;;
34459;SDS011;20704;51.260;22.558;2022-07-19T00:28:58;12.55;;;3.75;;
34459;SDS011;20704;51.260;22.558;2022-07-19T00:31:26;4.00;;;2.92;;
34459;SDS011;20704;51.260;22.558;2022-07-19T00:33:53;6.43;;;2.78;;
34459;SDS011;20704;51.260;22.558;2022-07-19T00:36:19;7.45;;;2.80;;
34459;SDS011;20704;51.260;22.558;2022-07-19T00:38:45;6.45;;;3.88;;
34459;SDS011;20704;51.260;22.558;2022-07-19T00:41:12;4.68;;;2.88;;
34459;SDS011;20704;51.260;22.558;2022-07-19T00:43:39;6.95;;;3.05;;
34459;SDS011;20704;51.260;22.558;2022-07-19T00:46:16;7.13;;;3.25;;
34459;SDS011;20704;51.260;22.558;2022-07-19T00:48:44;4.15;;;2.72;;
34459;SDS011;20704;51.260;22.558;2022-07-19T00:51:13;7.63;;;2.67;;
34459;SDS011;20704;51.260;22.558;2022-07-19T00:53:40;5.00;;;3.00;;
34459;SDS011;20704;51.260;22.558;2022-07-19T00:56:08;8.18;;;2.92;;
34459;SDS011;20704;51.260;22.558;2022-07-19T00:58:36;8.20;;;2.83;;
34459;SDS011;20704;51.260;22.558;2022-07-19T01:01:04;5.78;;;2.50;;
34459;SDS011;20704;51.260;22.558;2022-07-19T01:03:34;4.45;;;2.75;;
34459;SDS011;20704;51.260;22.558;2022-07-19T01:06:01;4.27;;;2.37;;
34459;SDS011;20704;51.260;22.558;2022-07-19T01:08:27;4.60;;;2.63;;
34459;SDS011;20704;51.260;22.558;2022-07-19T01:10:54;4.03;;;2.30;;
34459;SDS011;20704;51.260;22.558;2022-07-19T01:13:21;3.53;;;2.50;;
34459;SDS011;20704;51.260;22.558;2022-07-19T01:15:47;4.32;;;2.30;;
34459;SDS011;20704;51.260;22.558;2022-07-19T01:18:14;3.53;;;3.08;;
34459;SDS011;20704;51.260;22.558;2022-07-19T01:20:40;3.00;;;1.75;;
34459;SDS011;20704;51.260;22.558;2022-07-19T01:23:06;4.13;;;2.08;;
34459;SDS011;20704;51.260;22.558;2022-07-19T01:25:34;6.97;;;2.47;;
34459;SDS011;20704;51.260;22.558;2022-07-19T01:28:02;6.47;;;2.80;;
34459;SDS011;20704;51.260;22.558;2022-07-19T01:30:30;4.15;;;2.45;;
34459;SDS011;20704;51.260;22.558;2022-07-19T01:32:56;4.75;;;2.53;;
34459;SDS011;20704;51.260;22.558;2022-07-19T01:35:23;5.00;;;2.85;;
34459;SDS011;20704;51.260;22.558;2022-07-19T01:37:49;6.75;;;2.40;;
34459;SDS011;20704;51.260;22.558;2022-07-19T01:40:16;5.63;;;2.40;;
34459;SDS011;20704;51.260;22.558;2022-07-19T01:42:44;4.45;;;2.90;;
34459;SDS011;20704;51.260;22.558;2022-07-19T01:45:11;6.88;;;2.70;;
34459;SDS011;20704;51.260;22.558;2022-07-19T01:47:37;4.53;;;2.42;;
34459;SDS011;20704;51.260;22.558;2022-07-19T01:50:06;4.72;;;2.30;;
34459;SDS011;20704;51.260;22.558;2022-07-19T01:52:33;3.70;;;2.05;;
34459;SDS011;20704;51.260;22.558;2022-07-19T01:54:59;4.97;;;2.22;;
34459;SDS011;20704;51.260;22.558;2022-07-19T01:57:25;3.47;;;1.90;;
34459;SDS011;20704;51.260;22.558;2022-07-19T01:59:54;4.30;;;2.38;;
34459;SDS011;20704;51.260;22.558;2022-07-19T02:02:20;5.13;;;2.10;;
34459;SDS011;20704;51.260;22.558;2022-07-19T02:04:47;3.70;;;2.42;;
34459;SDS011;20704;51.260;22.558;2022-07-19T02:07:13;3.08;;;1.95;;
34459;SDS011;20704;51.260;22.558;2022-07-19T02:09:39;7.07;;;2.08;;
34459;SDS011;20704;51.260;22.558;2022-07-19T02:12:06;3.20;;;1.58;;
34459;SDS011;20704;51.260;22.558;2022-07-19T02:14:32;3.95;;;2.10;;
34459;SDS011;20704;51.260;22.558;2022-07-19T02:16:59;4.75;;;2.03;;
34459;SDS011;20704;51.260;22.558;2022-07-19T02:19:25;4.70;;;2.08;;
34459;SDS011;20704;51.260;22.558;2022-07-19T02:21:51;5.53;;;2.42;;
34459;SDS011;20704;51.260;22.558;2022-07-19T02:24:18;3.53;;;2.45;;
34459;SDS011;20704;51.260;22.558;2022-07-19T02:26:44;5.35;;;2.20;;
34459;SDS011;20704;51.260;22.558;2022-07-19T02:29:10;4.97;;;2.17;;
34459;SDS011;20704;51.260;22.558;2022-07-19T02:31:37;3.10;;;1.90;;
34459;SDS011;20704;51.260;22.558;2022-07-19T02:34:03;3.17;;;2.08;;
34459;SDS011;20704;51.260;22.558;2022-07-19T02:36:29;3.75;;;2.15;;
34459;SDS011;20704;51.260;22.558;2022-07-19T02:38:56;2.67;;;2.10;;
34459;SDS011;20704;51.260;22.558;2022-07-19T02:41:23;2.42;;;1.65;;
34459;SDS011;20704;51.260;22.558;2022-07-19T02:43:49;3.65;;;1.98;;
34459;SDS011;20704;51.260;22.558;2022-07-19T02:46:16;4.75;;;2.00;;
34459;SDS011;20704;51.260;22.558;2022-07-19T02:48:42;4.13;;;1.70;;
34459;SDS011;20704;51.260;22.558;2022-07-19T02:51:11;7.80;;;2.90;;
34459;SDS011;20704;51.260;22.558;2022-07-19T02:53:38;6.60;;;2.47;;
34459;SDS011;20704;51.260;22.558;2022-07-19T02:56:04;2.92;;;1.80;;
34459;SDS011;20704;51.260;22.558;2022-07-19T02:58:31;4.40;;;2.08;;
34459;SDS011;20704;51.260;22.558;2022-07-19T03:00:57;5.07;;;2.22;;
34459;SDS011;20704;51.260;22.558;2022-07-19T03:03:24;4.35;;;1.88;;
34459;SDS011;20704;51.260;22.558;2022-07-19T03:06:09;3.58;;;1.92;;
34459;SDS011;20704;51.260;22.558;2022-07-19T03:08:36;4.60;;;1.88;;
34459;SDS011;20704;51.260;22.558;2022-07-19T03:11:02;6.72;;;2.17;;
34459;SDS011;20704;51.260;22.558;2022-07-19T03:13:29;3.55;;;2.22;;
34459;SDS011;20704;51.260;22.558;2022-07-19T03:15:55;3.35;;;1.90;;
34459;SDS011;20704;51.260;22.558;2022-07-19T03:18:22;3.47;;;1.73;;
34459;SDS011;20704;51.260;22.558;2022-07-19T03:20:48;4.32;;;1.73;;
34459;SDS011;20704;51.260;22.558;2022-07-19T03:23:14;4.82;;;2.00;;
34459;SDS011;20704;51.260;22.558;2022-07-19T03:25:40;2.78;;;1.65;;
34459;SDS011;20704;51.260;22.558;2022-07-19T03:28:07;7.88;;;2.63;;
34459;SDS011;20704;51.260;22.558;2022-07-19T03:30:33;5.43;;;1.92;;
34459;SDS011;20704;51.260;22.558;2022-07-19T03:32:59;2.92;;;1.88;;
34459;SDS011;20704;51.260;22.558;2022-07-19T03:35:26;2.92;;;1.77;;
34459;SDS011;20704;51.260;22.558;2022-07-19T03:37:52;2.45;;;1.55;;
34459;SDS011;20704;51.260;22.558;2022-07-19T03:40:18;3.05;;;1.50;;
34459;SDS011;20704;51.260;22.558;2022-07-19T03:42:45;3.10;;;1.70;;
34459;SDS011;20704;51.260;22.558;2022-07-19T03:45:11;2.45;;;1.55;;
34459;SDS011;20704;51.260;22.558;2022-07-19T03:47:38;2.60;;;1.85;;
34459;SDS011;20704;51.260;22.558;2022-07-19T03:50:04;4.43;;;2.55;;
34459;SDS011;20704;51.260;22.558;2022-07-19T03:52:31;3.85;;;1.77;;
34459;SDS011;20704;51.260;22.558;2022-07-19T03:54:57;8.95;;;2.13;;
34459;SDS011;20704;51.260;22.558;2022-07-19T03:57:24;3.58;;;1.88;;
34459;SDS011;20704;51.260;22.558;2022-07-19T03:59:50;3.35;;;1.50;;
34459;SDS011;20704;51.260;22.558;2022-07-19T04:02:16;8.95;;;1.60;;
34459;SDS011;20704;51.260;22.558;2022-07-19T04:04:43;4.80;;;1.80;;
34459;SDS011;20704;51.260;22.558;2022-07-19T04:07:09;3.58;;;1.75;;
34459;SDS011;20704;51.260;22.558;2022-07-19T04:09:35;2.65;;;1.83;;
34459;SDS011;20704;51.260;22.558;2022-07-19T04:12:02;4.07;;;1.70;;
34459;SDS011;20704;51.260;22.558;2022-07-19T04:14:28;3.22;;;2.05;;
34459;SDS011;20704;51.260;22.558;2022-07-19T04:16:54;2.90;;;1.52;;
34459;SDS011;20704;51.260;22.558;2022-07-19T04:19:21;3.20;;;1.83;;
34459;SDS011;20704;51.260;22.558;2022-07-19T04:21:47;3.90;;;1.73;;
34459;SDS011;20704;51.260;22.558;2022-07-19T04:24:13;3.00;;;1.88;;
34459;SDS011;20704;51.260;22.558;2022-07-19T04:26:40;2.83;;;1.80;;
34459;SDS011;20704;51.260;22.558;2022-07-19T04:29:06;4.68;;;2.13;;
34459;SDS011;20704;51.260;22.558;2022-07-19T04:31:33;8.18;;;1.88;;
34459;SDS011;20704;51.260;22.558;2022-07-19T04:33:59;3.80;;;1.85;;
34459;SDS011;20704;51.260;22.558;2022-07-19T04:36:25;2.58;;;1.77;;
34459;SDS011;20704;51.260;22.558;2022-07-19T04:38:52;3.67;;;1.58;;
34459;SDS011;20704;51.260;22.558;2022-07-19T04:41:18;2.60;;;1.83;;
34459;SDS011;20704;51.260;22.558;2022-07-19T04:43:44;3.70;;;1.60;;
34459;SDS011;20704;51.260;22.558;2022-07-19T04:46:11;3.72;;;2.00;;
34459;SDS011;20704;51.260;22.558;2022-07-19T04:48:37;3.03;;;1.75;;
34459;SDS011;20704;51.260;22.558;2022-07-19T04:51:06;2.42;;;1.70;;
34459;SDS011;20704;51.260;22.558;2022-07-19T04:53:32;1.90;;;1.50;;
34459;SDS011;20704;51.260;22.558;2022-07-19T04:55:59;4.38;;;2.03;;
34459;SDS011;20704;51.260;22.558;2022-07-19T04:58:25;7.32;;;2.22;;
34459;SDS011;20704;51.260;22.558;2022-07-19T05:00:52;4.38;;;1.85;;
34459;SDS011;20704;51.260;22.558;2022-07-19T05:03:18;2.53;;;1.60;;
34459;SDS011;20704;51.260;22.558;2022-07-19T05:05:44;3.67;;;2.13;;
34459;SDS011;20704;51.260;22.558;2022-07-19T05:08:11;3.15;;;1.65;;
34459;SDS011;20704;51.260;22.558;2022-07-19T05:10:38;3.83;;;2.03;;
34459;SDS011;20704;51.260;22.558;2022-07-19T05:13:04;3.15;;;2.47;;
34459;SDS011;20704;51.260;22.558;2022-07-19T05:15:30;3.72;;;1.55;;
34459;SDS011;20704;51.260;22.558;2022-07-19T05:17:57;4.03;;;1.95;;
34459;SDS011;20704;51.260;22.558;2022-07-19T05:20:23;4.28;;;2.28;;
34459;SDS011;20704;51.260;22.558;2022-07-19T05:22:49;5.45;;;1.80;;
34459;SDS011;20704;51.260;22.558;2022-07-19T05:25:16;3.35;;;2.40;;
34459;SDS011;20704;51.260;22.558;2022-07-19T05:27:42;3.47;;;1.80;;
34459;SDS011;20704;51.260;22.558;2022-07-19T05:30:09;2.85;;;1.55;;
34459;SDS011;20704;51.260;22.558;2022-07-19T05:32:36;3.95;;;1.80;;
34459;SDS011;20704;51.260;22.558;2022-07-19T05:35:02;3.33;;;1.75;;
34459;SDS011;20704;51.260;22.558;2022-07-19T05:37:28;4.07;;;1.73;;
34459;SDS011;20704;51.260;22.558;2022-07-19T05:39:55;2.72;;;1.60;;
34459;SDS011;20704;51.260;22.558;2022-07-19T05:42:21;8.40;;;2.22;;
34459;SDS011;20704;51.260;22.558;2022-07-19T05:44:48;7.63;;;2.08;;
34459;SDS011;20704;51.260;22.558;2022-07-19T05:47:14;3.15;;;2.10;;
34459;SDS011;20704;51.260;22.558;2022-07-19T05:49:41;2.30;;;1.85;;
34459;SDS011;20704;51.260;22.558;2022-07-19T05:52:07;2.28;;;1.63;;
34459;SDS011;20704;51.260;22.558;2022-07-19T05:54:33;3.45;;;1.92;;
34459;SDS011;20704;51.260;22.558;2022-07-19T05:57:00;7.47;;;2.58;;
34459;SDS011;20704;51.260;22.558;2022-07-19T05:59:26;3.47;;;1.33;;
34459;SDS011;20704;51.260;22.558;2022-07-19T06:01:52;6.32;;;1.70;;
34459;SDS011;20704;51.260;22.558;2022-07-19T06:04:19;4.03;;;1.58;;
34459;SDS011;20704;51.260;22.558;2022-07-19T06:06:45;4.85;;;2.42;;
34459;SDS011;20704;51.260;22.558;2022-07-19T06:09:12;9.23;;;2.03;;
34459;SDS011;20704;51.260;22.558;2022-07-19T06:11:41;4.43;;;1.92;;
34459;SDS011;20704;51.260;22.558;2022-07-19T06:14:08;2.00;;;1.50;;
34459;SDS011;20704;51.260;22.558;2022-07-19T06:16:35;4.55;;;1.83;;
34459;SDS011;20704;51.260;22.558;2022-07-19T06:19:03;3.78;;;1.50;;
34459;SDS011;20704;51.260;22.558;2022-07-19T06:21:30;4.38;;;1.67;;
34459;SDS011;20704;51.260;22.558;2022-07-19T06:23:56;2.85;;;1.73;;
34459;SDS011;20704;51.260;22.558;2022-07-19T06:26:23;10.70;;;2.00;;
34459;SDS011;20704;51.260;22.558;2022-07-19T06:28:49;3.92;;;2.25;;
34459;SDS011;20704;51.260;22.558;2022-07-19T06:31:15;4.18;;;2.05;;
34459;SDS011;20704;51.260;22.558;2022-07-19T06:33:45;5.67;;;2.00;;
34459;SDS011;20704;51.260;22.558;2022-07-19T06:36:13;3.88;;;1.65;;
34459;SDS011;20704;51.260;22.558;2022-07-19T06:38:40;2.58;;;1.40;;
34459;SDS011;20704;51.260;22.558;2022-07-19T06:41:10;3.47;;;1.70;;
34459;SDS011;20704;51.260;22.558;2022-07-19T06:43:37;3.80;;;1.33;;
34459;SDS011;20704;51.260;22.558;2022-07-19T06:46:04;4.88;;;2.20;;
34459;SDS011;20704;51.260;22.558;2022-07-19T06:48:30;3.13;;;1.45;;
34459;SDS011;20704;51.260;22.558;2022-07-19T06:50:57;4.90;;;1.75;;
34459;SDS011;20704;51.260;22.558;2022-07-19T06:53:23;3.45;;;1.70;;
34459;SDS011;20704;51.260;22.558;2022-07-19T06:55:49;4.68;;;1.98;;
34459;SDS011;20704;51.260;22.558;2022-07-19T06:58:15;4.80;;;2.33;;
34459;SDS011;20704;51.260;22.558;2022-07-19T07:00:42;2.22;;;1.50;;
34459;SDS011;20704;51.260;22.558;2022-07-19T07:03:08;3.78;;;2.05;;
34459;SDS011;20704;51.260;22.558;2022-07-19T07:05:34;5.40;;;1.73;;
34459;SDS011;20704;51.260;22.558;2022-07-19T07:08:00;4.43;;;1.80;;
34459;SDS011;20704;51.260;22.558;2022-07-19T07:10:26;7.03;;;2.53;;
34459;SDS011;20704;51.260;22.558;2022-07-19T07:12:53;1.92;;;1.63;;
34459;SDS011;20704;51.260;22.558;2022-07-19T07:15:19;5.53;;;2.13;;
34459;SDS011;20704;51.260;22.558;2022-07-19T07:17:45;2.60;;;1.80;;
34459;SDS011;20704;51.260;22.558;2022-07-19T07:20:12;3.05;;;1.90;;
34459;SDS011;20704;51.260;22.558;2022-07-19T07:22:38;6.10;;;2.35;;
34459;SDS011;20704;51.260;22.558;2022-07-19T07:25:04;5.30;;;2.13;;
34459;SDS011;20704;51.260;22.558;2022-07-19T07:27:31;4.55;;;2.90;;
34459;SDS011;20704;51.260;22.558;2022-07-19T07:29:57;5.38;;;2.72;;
34459;SDS011;20704;51.260;22.558;2022-07-19T07:32:23;4.40;;;2.97;;
34459;SDS011;20704;51.260;22.558;2022-07-19T07:34:52;9.05;;;3.60;;
34459;SDS011;20704;51.260;22.558;2022-07-19T07:37:19;5.10;;;2.53;;
34459;SDS011;20704;51.260;22.558;2022-07-19T07:39:45;2.45;;;2.00;;
34459;SDS011;20704;51.260;22.558;2022-07-19T07:42:11;5.10;;;2.70;;
34459;SDS011;20704;51.260;22.558;2022-07-19T07:44:37;4.93;;;2.92;;
34459;SDS011;20704;51.260;22.558;2022-07-19T07:47:03;6.68;;;2.75;;
34459;SDS011;20704;51.260;22.558;2022-07-19T07:49:29;3.53;;;2.20;;
34459;SDS011;20704;51.260;22.558;2022-07-19T07:51:55;5.80;;;2.53;;
34459;SDS011;20704;51.260;22.558;2022-07-19T07:54:21;6.38;;;2.03;;
34459;SDS011;20704;51.260;22.558;2022-07-19T07:56:47;6.05;;;2.30;;
34459;SDS011;20704;51.260;22.558;2022-07-19T07:59:14;3.17;;;2.35;;
34459;SDS011;20704;51.260;22.558;2022-07-19T08:01:40;4.20;;;2.20;;
34459;SDS011;20704;51.260;22.558;2022-07-19T08:04:08;4.55;;;2.33;;
34459;SDS011;20704;51.260;22.558;2022-07-19T08:06:35;6.03;;;2.30;;
34459;SDS011;20704;51.260;22.558;2022-07-19T08:09:01;48.10;;;5.07;;
34459;SDS011;20704;51.260;22.558;2022-07-19T08:11:28;29.88;;;3.88;;
34459;SDS011;20704;51.260;22.558;2022-07-19T08:13:54;7.80;;;1.83;;
34459;SDS011;20704;51.260;22.558;2022-07-19T08:16:20;5.55;;;2.03;;
34459;SDS011;20704;51.260;22.558;2022-07-19T08:18:46;7.20;;;2.25;;
34459;SDS011;20704;51.260;22.558;2022-07-19T08:21:12;2.33;;;1.77;;
34459;SDS011;20704;51.260;22.558;2022-07-19T08:23:38;4.28;;;2.05;;
34459;SDS011;20704;51.260;22.558;2022-07-19T08:26:07;2.30;;;2.00;;
34459;SDS011;20704;51.260;22.558;2022-07-19T08:28:34;3.05;;;1.83;;
34459;SDS011;20704;51.260;22.558;2022-07-19T08:31:00;8.70;;;2.53;;
34459;SDS011;20704;51.260;22.558;2022-07-19T08:33:26;2.45;;;1.77;;
34459;SDS011;20704;51.260;22.558;2022-07-19T08:35:53;8.95;;;1.92;;
34459;SDS011;20704;51.260;22.558;2022-07-19T08:38:19;2.83;;;1.60;;
34459;SDS011;20704;51.260;22.558;2022-07-19T08:40:45;4.07;;;1.90;;
34459;SDS011;20704;51.260;22.558;2022-07-19T08:43:15;7.78;;;2.13;;
34459;SDS011;20704;51.260;22.558;2022-07-19T08:45:43;4.47;;;1.48;;
34459;SDS011;20704;51.260;22.558;2022-07-19T08:48:09;5.35;;;2.45;;
34459;SDS011;20704;51.260;22.558;2022-07-19T08:50:36;12.32;;;2.95;;
34459;SDS011;20704;51.260;22.558;2022-07-19T08:53:04;18.38;;;3.47;;
34459;SDS011;20704;51.260;22.558;2022-07-19T08:55:30;4.22;;;2.25;;
34459;SDS011;20704;51.260;22.558;2022-07-19T08:57:56;3.63;;;2.17;;
34459;SDS011;20704;51.260;22.558;2022-07-19T09:00:25;2.67;;;1.55;;
34459;SDS011;20704;51.260;22.558;2022-07-19T09:05:26;2.00;;;1.80;;
34459;SDS011;20704;51.260;22.558;2022-07-19T09:08:09;4.68;;;1.75;;
34459;SDS011;20704;51.260;22.558;2022-07-19T09:10:42;2.97;;;1.67;;
34459;SDS011;20704;51.260;22.558;2022-07-19T09:13:14;4.97;;;2.20;;
34459;SDS011;20704;51.260;22.558;2022-07-19T09:20:52;2.38;;;1.30;;
34459;SDS011;20704;51.260;22.558;2022-07-19T09:23:19;4.75;;;1.60;;
34459;SDS011;20704;51.260;22.558;2022-07-19T09:25:56;2.67;;;1.85;;
34459;SDS011;20704;51.260;22.558;2022-07-19T09:28:24;4.72;;;1.70;;
34459;SDS011;20704;51.260;22.558;2022-07-19T09:30:56;2.55;;;1.40;;
34459;SDS011;20704;51.260;22.558;2022-07-19T09:33:26;3.72;;;1.50;;
34459;SDS011;20704;51.260;22.558;2022-07-19T09:36:01;9.18;;;1.65;;
34459;SDS011;20704;51.260;22.558;2022-07-19T09:38:30;5.47;;;1.65;;
34459;SDS011;20704;51.260;22.558;2022-07-19T09:46:26;5.93;;;1.60;;
34459;SDS011;20704;51.260;22.558;2022-07-19T09:49:10;3.03;;;1.90;;
34459;SDS011;20704;51.260;22.558;2022-07-19T09:51:39;5.05;;;1.85;;
34459;SDS011;20704;51.260;22.558;2022-07-19T09:54:08;2.53;;;1.73;;
34459;SDS011;20704;51.260;22.558;2022-07-19T09:56:38;9.02;;;1.95;;
34459;SDS011;20704;51.260;22.558;2022-07-19T09:59:06;2.65;;;1.58;;
34459;SDS011;20704;51.260;22.558;2022-07-19T10:01:33;4.70;;;1.75;;
34459;SDS011;20704;51.260;22.558;2022-07-19T10:04:06;8.02;;;1.92;;
34459;SDS011;20704;51.260;22.558;2022-07-19T10:06:38;6.18;;;2.10;;
34459;SDS011;20704;51.260;22.558;2022-07-19T10:09:05;6.47;;;2.22;;
34459;SDS011;20704;51.260;22.558;2022-07-19T10:11:33;5.63;;;1.85;;
34459;SDS011;20704;51.260;22.558;2022-07-19T10:14:00;2.92;;;2.00;;
34459;SDS011;20704;51.260;22.558;2022-07-19T10:19:31;5.90;;;2.10;;
34459;SDS011;20704;51.260;22.558;2022-07-19T10:22:11;7.43;;;2.17;;
34459;SDS011;20704;51.260;22.558;2022-07-19T10:24:49;4.85;;;1.75;;
34459;SDS011;20704;51.260;22.558;2022-07-19T10:27:40;19.98;;;2.08;;
34459;SDS011;20704;51.260;22.558;2022-07-19T10:32:38;2.67;;;1.83;;
34459;SDS011;20704;51.260;22.558;2022-07-19T10:40:44;3.97;;;2.20;;
34459;SDS011;20704;51.260;22.558;2022-07-19T10:45:43;4.40;;;1.80;;
34459;SDS011;20704;51.260;22.558;2022-07-19T10:51:11;4.35;;;1.55;;
34459;SDS011;20704;51.260;22.558;2022-07-19T10:56:22;2.03;;;1.55;;
34459;SDS011;20704;51.260;22.558;2022-07-19T11:01:28;2.72;;;1.88;;
34459;SDS011;20704;51.260;22.558;2022-07-19T11:04:22;5.47;;;2.13;;
34459;SDS011;20704;51.260;22.558;2022-07-19T11:06:49;3.47;;;1.50;;
34459;SDS011;20704;51.260;22.558;2022-07-19T11:09:16;3.00;;;1.63;;
34459;SDS011;20704;51.260;22.558;2022-07-19T11:11:42;7.85;;;1.77;;
34459;SDS011;20704;51.260;22.558;2022-07-19T11:14:09;3.15;;;1.98;;
34459;SDS011;20704;51.260;22.558;2022-07-19T11:16:35;4.75;;;1.85;;
34459;SDS011;20704;51.260;22.558;2022-07-19T11:19:04;1.83;;;1.40;;
34459;SDS011;20704;51.260;22.558;2022-07-19T11:21:32;4.03;;;1.70;;
34459;SDS011;20704;51.260;22.558;2022-07-19T11:24:00;2.65;;;1.60;;
34459;SDS011;20704;51.260;22.558;2022-07-19T11:26:26;1.95;;;1.60;;
34459;SDS011;20704;51.260;22.558;2022-07-19T11:28:59;4.85;;;1.77;;
34459;SDS011;20704;51.260;22.558;2022-07-19T11:31:25;1.90;;;1.50;;
34459;SDS011;20704;51.260;22.558;2022-07-19T11:33:52;6.78;;;1.92;;
34459;SDS011;20704;51.260;22.558;2022-07-19T11:36:22;3.58;;;1.80;;
34459;SDS011;20704;51.260;22.558;2022-07-19T11:38:52;2.25;;;1.92;;
34459;SDS011;20704;51.260;22.558;2022-07-19T11:41:25;3.55;;;1.90;;
34459;SDS011;20704;51.260;22.558;2022-07-19T11:46:25;3.45;;;1.58;;
34459;SDS011;20704;51.260;22.558;2022-07-19T11:49:00;3.03;;;1.52;;
34459;SDS011;20704;51.260;22.558;2022-07-19T11:51:28;4.38;;;1.98;;
34459;SDS011;20704;51.260;22.558;2022-07-19T11:53:55;1.65;;;1.30;;
34459;SDS011;20704;51.260;22.558;2022-07-19T11:56:25;3.90;;;1.60;;
34459;SDS011;20704;51.260;22.558;2022-07-19T11:58:57;2.38;;;1.63;;
34459;SDS011;20704;51.260;22.558;2022-07-19T12:01:29;2.30;;;1.58;;
34459;SDS011;20704;51.260;22.558;2022-07-19T12:03:58;7.32;;;2.13;;
34459;SDS011;20704;51.260;22.558;2022-07-19T12:09:03;3.67;;;2.15;;
34459;SDS011;20704;51.260;22.558;2022-07-19T12:11:39;6.00;;;3.30;;
34459;SDS011;20704;51.260;22.558;2022-07-19T12:14:16;3.45;;;1.52;;
34459;SDS011;20704;51.260;22.558;2022-07-19T12:16:43;1.75;;;1.45;;
34459;SDS011;20704;51.260;22.558;2022-07-19T12:19:10;2.55;;;1.90;;
34459;SDS011;20704;51.260;22.558;2022-07-19T12:24:14;2.45;;;1.27;;
34459;SDS011;20704;51.260;22.558;2022-07-19T12:31:52;2.03;;;1.65;;
34459;SDS011;20704;51.260;22.558;2022-07-19T12:34:20;2.88;;;1.48;;
34459;SDS011;20704;51.260;22.558;2022-07-19T12:36:46;4.03;;;1.40;;
34459;SDS011;20704;51.260;22.558;2022-07-19T12:39:28;2.53;;;1.67;;
34459;SDS011;20704;51.260;22.558;2022-07-19T12:41:59;6.70;;;1.65;;
34459;SDS011;20704;51.260;22.558;2022-07-19T12:44:25;3.80;;;1.48;;
34459;SDS011;20704;51.260;22.558;2022-07-19T12:46:52;7.00;;;1.77;;
34459;SDS011;20704;51.260;22.558;2022-07-19T12:49:18;3.28;;;1.60;;
34459;SDS011;20704;51.260;22.558;2022-07-19T12:51:44;9.23;;;1.77;;
34459;SDS011;20704;51.260;22.558;2022-07-19T12:54:11;2.88;;;1.70;;
34459;SDS011;20704;51.260;22.558;2022-07-19T12:56:37;5.47;;;2.00;;
34459;SDS011;20704;51.260;22.558;2022-07-19T12:59:04;7.65;;;1.40;;
34459;SDS011;20704;51.260;22.558;2022-07-19T13:01:50;1.77;;;1.40;;
34459;SDS011;20704;51.260;22.558;2022-07-19T13:04:16;3.10;;;1.73;;
34459;SDS011;20704;51.260;22.558;2022-07-19T13:06:42;2.92;;;1.50;;
34459;SDS011;20704;51.260;22.558;2022-07-19T13:09:08;1.65;;;1.55;;
34459;SDS011;20704;51.260;22.558;2022-07-19T13:11:35;6.35;;;1.73;;
34459;SDS011;20704;51.260;22.558;2022-07-19T13:14:01;1.90;;;1.40;;
34459;SDS011;20704;51.260;22.558;2022-07-19T13:16:32;3.67;;;1.35;;
34459;SDS011;20704;51.260;22.558;2022-07-19T13:18:58;4.25;;;1.67;;
34459;SDS011;20704;51.260;22.558;2022-07-19T13:21:24;3.60;;;1.70;;
34459;SDS011;20704;51.260;22.558;2022-07-19T13:23:51;4.93;;;1.65;;
34459;SDS011;20704;51.260;22.558;2022-07-19T13:26:17;4.60;;;1.60;;
34459;SDS011;20704;51.260;22.558;2022-07-19T13:28:43;1.92;;;1.50;;
34459;SDS011;20704;51.260;22.558;2022-07-19T13:31:09;2.10;;;1.60;;
34459;SDS011;20704;51.260;22.558;2022-07-19T13:33:35;3.53;;;1.60;;
34459;SDS011;20704;51.260;22.558;2022-07-19T13:36:01;2.20;;;1.52;;
34459;SDS011;20704;51.260;22.558;2022-07-19T13:38:27;2.13;;;1.50;;
34459;SDS011;20704;51.260;22.558;2022-07-19T13:40:53;4.30;;;1.65;;
34459;SDS011;20704;51.260;22.558;2022-07-19T13:43:19;2.53;;;1.67;;
34459;SDS011;20704;51.260;22.558;2022-07-19T13:45:45;4.43;;;1.90;;
34459;SDS011;20704;51.260;22.558;2022-07-19T13:48:11;2.67;;;1.77;;
34459;SDS011;20704;51.260;22.558;2022-07-19T13:50:37;2.55;;;1.60;;
34459;SDS011;20704;51.260;22.558;2022-07-19T13:53:04;3.92;;;1.80;;
34459;SDS011;20704;51.260;22.558;2022-07-19T13:55:30;3.53;;;1.92;;
34459;SDS011;20704;51.260;22.558;2022-07-19T13:57:57;4.80;;;1.70;;
34459;SDS011;20704;51.260;22.558;2022-07-19T14:00:23;5.85;;;1.42;;
34459;SDS011;20704;51.260;22.558;2022-07-19T14:02:50;5.53;;;2.22;;
34459;SDS011;20704;51.260;22.558;2022-07-19T14:05:16;3.03;;;1.65;;
34459;SDS011;20704;51.260;22.558;2022-07-19T14:07:43;2.60;;;1.55;;
34459;SDS011;20704;51.260;22.558;2022-07-19T14:10:09;1.92;;;1.60;;
34459;SDS011;20704;51.260;22.558;2022-07-19T14:12:35;4.38;;;2.10;;
34459;SDS011;20704;51.260;22.558;2022-07-19T14:15:01;2.83;;;1.92;;
34459;SDS011;20704;51.260;22.558;2022-07-19T14:17:27;2.03;;;1.30;;
34459;SDS011;20704;51.260;22.558;2022-07-19T14:19:53;7.95;;;2.42;;
34459;SDS011;20704;51.260;22.558;2022-07-19T14:22:19;3.28;;;1.80;;
34459;SDS011;20704;51.260;22.558;2022-07-19T14:24:46;3.80;;;2.10;;
34459;SDS011;20704;51.260;22.558;2022-07-19T14:27:12;7.20;;;2.60;;
34459;SDS011;20704;51.260;22.558;2022-07-19T14:29:38;3.00;;;1.88;;
34459;SDS011;20704;51.260;22.558;2022-07-19T14:32:05;4.90;;;1.60;;
34459;SDS011;20704;51.260;22.558;2022-07-19T14:34:31;2.97;;;1.60;;
34459;SDS011;20704;51.260;22.558;2022-07-19T14:36:57;1.70;;;1.50;;
34459;SDS011;20704;51.260;22.558;2022-07-19T14:39:24;1.60;;;1.50;;
34459;SDS011;20704;51.260;22.558;2022-07-19T14:41:50;3.67;;;2.10;;
34459;SDS011;20704;51.260;22.558;2022-07-19T14:44:16;5.70;;;2.58;;
34459;SDS011;20704;51.260;22.558;2022-07-19T14:46:43;3.35;;;1.83;;
34459;SDS011;20704;51.260;22.558;2022-07-19T14:49:09;2.35;;;1.70;;
34459;SDS011;20704;51.260;22.558;2022-07-19T14:51:35;5.65;;;1.83;;
34459;SDS011;20704;51.260;22.558;2022-07-19T14:54:02;2.08;;;1.50;;
34459;SDS011;20704;51.260;22.558;2022-07-19T14:56:28;4.07;;;1.60;;
34459;SDS011;20704;51.260;22.558;2022-07-19T14:58:54;3.80;;;2.15;;
34459;SDS011;20704;51.260;22.558;2022-07-19T15:01:20;4.80;;;1.70;;
34459;SDS011;20704;51.260;22.558;2022-07-19T15:03:47;2.20;;;1.50;;
34459;SDS011;20704;51.260;22.558;2022-07-19T15:06:13;4.00;;;1.77;;
34459;SDS011;20704;51.260;22.558;2022-07-19T15:08:39;6.65;;;2.20;;
34459;SDS011;20704;51.260;22.558;2022-07-19T15:11:05;6.07;;;2.20;;
34459;SDS011;20704;51.260;22.558;2022-07-19T15:13:33;3.40;;;1.90;;
34459;SDS011;20704;51.260;22.558;2022-07-19T15:16:00;5.40;;;1.83;;
34459;SDS011;20704;51.260;22.558;2022-07-19T15:18:26;2.60;;;1.90;;
34459;SDS011;20704;51.260;22.558;2022-07-19T15:20:52;2.88;;;1.92;;
34459;SDS011;20704;51.260;22.558;2022-07-19T15:23:18;5.13;;;2.28;;